Time;durP1;ratioP1;P1;durP2;ratioP2;P2;SDS_P1;SDS_P2;PMS_P1;PMS_P2;Temp;Humidity;BMP_temperature;BMP_pressure;BME280_temperature;BME280_humidity;BME280_pressure;Samples;Min_cycle;Max_cycle;Signal;HPM_P1;HPM_P2
2022/01/31 00:00:34;;;;;;;4.37;1.83;;;;;;;;;;5059051;28;20217;-60
2022/01/31 00:03:04;;;;;;;3.10;2.60;;;;;;;;;;5058856;28;20216;-60
2022/01/31 00:05:32;;;;;;;3.90;2.00;;;;;;;;;;5058012;28;20202;-60
2022/01/31 00:07:59;;;;;;;11.50;5.30;;;;;;;;;;5061254;28;20240;-61
2022/01/31 00:10:29;;;;;;;14.03;7.27;;;;;;;;;;5055697;28;20287;-60
2022/01/31 00:13:02;;;;;;;13.53;6.87;;;;;;;;;;5060214;28;20216;-60
2022/01/31 00:15:29;;;;;;;4.33;1.90;;;;;;;;;;5056503;28;20210;-60
2022/01/31 00:17:56;;;;;;;4.13;2.13;;;;;;;;;;5062192;28;20219;-60
2022/01/31 00:20:25;;;;;;;5.30;2.70;;;;;;;;;;5059245;28;20271;-61
2022/01/31 00:22:53;;;;;;;3.40;1.20;;;;;;;;;;5059361;28;20212;-60
2022/01/31 00:25:20;;;;;;;3.40;1.97;;;;;;;;;;5060828;28;20210;-61
2022/01/31 00:27:48;;;;;;;9.33;2.20;;;;;;;;;;5056456;28;20201;-60
2022/01/31 00:30:15;;;;;;;5.70;1.57;;;;;;;;;;5056788;28;20217;-61
2022/01/31 00:32:43;;;;;;;2.37;1.13;;;;;;;;;;5059404;28;20224;-60
2022/01/31 00:35:10;;;;;;;2.47;1.57;;;;;;;;;;5058004;28;20224;-60
2022/01/31 00:37:37;;;;;;;6.27;1.90;;;;;;;;;;5057433;28;20934;-61
2022/01/31 00:40:07;;;;;;;1.10;1.00;;;;;;;;;;5063222;28;20231;-60
2022/01/31 00:42:34;;;;;;;2.03;1.27;;;;;;;;;;5054668;28;20584;-60
2022/01/31 00:45:11;;;;;;;3.33;1.40;;;;;;;;;;5063116;28;20210;-60
2022/01/31 00:47:41;;;;;;;0.93;0.93;;;;;;;;;;5060214;28;20766;-60
2022/01/31 00:50:10;;;;;;;1.57;0.80;;;;;;;;;;5059862;28;20229;-60
2022/01/31 00:52:38;;;;;;;2.37;1.23;;;;;;;;;;5059709;28;20212;-59
2022/01/31 00:55:07;;;;;;;0.97;0.87;;;;;;;;;;5057979;28;20264;-61
2022/01/31 00:57:34;;;;;;;2.57;1.07;;;;;;;;;;5058844;28;20220;-60
2022/01/31 01:00:01;;;;;;;2.57;0.87;;;;;;;;;;5059664;28;20203;-60
2022/01/31 01:02:30;;;;;;;1.63;0.80;;;;;;;;;;5057162;28;20212;-60
2022/01/31 01:04:57;;;;;;;4.37;0.80;;;;;;;;;;5056072;28;20614;-60
2022/01/31 01:07:24;;;;;;;0.67;0.67;;;;;;;;;;5059759;28;20241;-60
2022/01/31 01:09:51;;;;;;;3.73;0.93;;;;;;;;;;5056641;28;20230;-59
2022/01/31 01:12:20;;;;;;;2.07;0.67;;;;;;;;;;5058040;28;20215;-60
2022/01/31 01:14:49;;;;;;;1.07;1.03;;;;;;;;;;5063723;28;20206;-60
2022/01/31 01:17:16;;;;;;;0.83;0.83;;;;;;;;;;5065131;28;20217;-60
2022/01/31 01:19:44;;;;;;;0.77;0.60;;;;;;;;;;5059245;28;20206;-60
2022/01/31 01:22:11;;;;;;;1.47;1.37;;;;;;;;;;5072199;28;20233;-60
2022/01/31 01:24:38;;;;;;;4.07;0.90;;;;;;;;;;5071239;28;20218;-60
2022/01/31 01:27:08;;;;;;;2.93;0.90;;;;;;;;;;5071813;28;20218;-59
2022/01/31 01:29:36;;;;;;;1.60;0.93;;;;;;;;;;5067754;28;20250;-60
2022/01/31 01:32:03;;;;;;;8.53;1.10;;;;;;;;;;5069642;28;20267;-60
2022/01/31 01:34:33;;;;;;;1.43;0.90;;;;;;;;;;5071317;28;20225;-60
2022/01/31 01:37:01;;;;;;;3.33;1.13;;;;;;;;;;5072056;28;20233;-60
2022/01/31 01:39:28;;;;;;;2.70;1.10;;;;;;;;;;5072040;28;20312;-60
2022/01/31 01:41:55;;;;;;;1.00;1.00;;;;;;;;;;5066293;28;20695;-60
2022/01/31 01:44:37;;;;;;;0.80;0.80;;;;;;;;;;5062692;28;20200;-60
2022/01/31 01:47:06;;;;;;;9.23;1.27;;;;;;;;;;5070172;28;20209;-60
2022/01/31 01:49:33;;;;;;;4.30;1.20;;;;;;;;;;5071780;28;20231;-60
2022/01/31 01:52:00;;;;;;;1.70;0.80;;;;;;;;;;5071330;28;20235;-61
2022/01/31 01:54:27;;;;;;;1.17;0.90;;;;;;;;;;5070829;28;20665;-60
2022/01/31 01:56:54;;;;;;;8.87;1.20;;;;;;;;;;5071651;28;20225;-60
2022/01/31 01:59:21;;;;;;;1.23;0.77;;;;;;;;;;5071699;28;20301;-60
2022/01/31 02:01:49;;;;;;;1.03;0.70;;;;;;;;;;5071682;28;20217;-60
2022/01/31 02:04:17;;;;;;;1.10;0.83;;;;;;;;;;5070775;28;20211;-60
2022/01/31 02:06:45;;;;;;;2.93;1.10;;;;;;;;;;5070492;28;20221;-60
2022/01/31 02:09:12;;;;;;;3.50;0.93;;;;;;;;;;5070055;28;20223;-61
2022/01/31 02:11:39;;;;;;;4.10;0.93;;;;;;;;;;5070827;28;20211;-60
2022/01/31 02:14:06;;;;;;;2.23;1.00;;;;;;;;;;5070080;28;20211;-60
2022/01/31 02:16:33;;;;;;;1.10;1.10;;;;;;;;;;5069663;28;20207;-60
2022/01/31 02:19:01;;;;;;;1.00;1.00;;;;;;;;;;5070608;28;20203;-60
2022/01/31 02:21:29;;;;;;;2.40;0.80;;;;;;;;;;5070692;28;20217;-60
2022/01/31 02:23:56;;;;;;;0.60;0.60;;;;;;;;;;5070658;28;20207;-60
2022/01/31 02:26:23;;;;;;;2.63;0.90;;;;;;;;;;5070293;28;20206;-60
2022/01/31 02:28:50;;;;;;;1.73;0.80;;;;;;;;;;5070341;28;20288;-60
2022/01/31 02:31:17;;;;;;;1.50;0.90;;;;;;;;;;5069571;28;20220;-60
2022/01/31 02:33:44;;;;;;;1.60;0.77;;;;;;;;;;5068451;28;20261;-60
2022/01/31 02:36:11;;;;;;;5.27;1.47;;;;;;;;;;5070051;28;20211;-60
2022/01/31 02:38:40;;;;;;;4.27;0.80;;;;;;;;;;5070222;28;20211;-59
2022/01/31 02:41:07;;;;;;;0.90;0.90;;;;;;;;;;5070413;28;20607;-60
2022/01/31 02:43:35;;;;;;;1.40;0.93;;;;;;;;;;5069210;28;20269;-60
2022/01/31 02:46:02;;;;;;;1.50;1.30;;;;;;;;;;5070573;28;20967;-59
2022/01/31 02:48:33;;;;;;;0.97;0.80;;;;;;;;;;5069743;28;20198;-59
2022/01/31 02:51:00;;;;;;;3.97;1.13;;;;;;;;;;5069091;28;20320;-58
2022/01/31 02:53:30;;;;;;;1.10;0.63;;;;;;;;;;5069426;28;20211;-59
2022/01/31 02:55:59;;;;;;;3.80;1.37;;;;;;;;;;5070018;28;20306;-59
2022/01/31 02:58:27;;;;;;;1.03;0.70;;;;;;;;;;5066719;28;20254;-59
2022/01/31 03:00:55;;;;;;;5.40;0.93;;;;;;;;;;5069299;28;20714;-59
2022/01/31 03:03:23;;;;;;;3.20;0.70;;;;;;;;;;5069414;28;20202;-59
2022/01/31 03:05:50;;;;;;;0.93;0.70;;;;;;;;;;5070086;28;20214;-60
2022/01/31 03:08:17;;;;;;;1.20;1.10;;;;;;;;;;5067670;28;20238;-60
2022/01/31 03:10:44;;;;;;;4.60;1.00;;;;;;;;;;5069721;28;20706;-59
2022/01/31 03:13:12;;;;;;;2.07;1.20;;;;;;;;;;5069833;28;20619;-60
2022/01/31 03:15:39;;;;;;;2.07;0.93;;;;;;;;;;5069960;28;20203;-60
2022/01/31 03:18:07;;;;;;;0.67;0.67;;;;;;;;;;5069493;28;20261;-60
2022/01/31 03:20:34;;;;;;;2.97;1.27;;;;;;;;;;5067747;28;20207;-60
2022/01/31 03:23:01;;;;;;;1.60;1.30;;;;;;;;;;5069592;28;20261;-60
2022/01/31 03:25:28;;;;;;;0.83;0.83;;;;;;;;;;5070122;28;20288;-60
2022/01/31 03:27:56;;;;;;;0.67;0.60;;;;;;;;;;5070041;28;20609;-60
2022/01/31 03:30:25;;;;;;;0.70;0.70;;;;;;;;;;5069598;28;20313;-60
2022/01/31 03:32:52;;;;;;;1.20;0.60;;;;;;;;;;5070005;28;20222;-60
2022/01/31 03:35:19;;;;;;;2.43;0.97;;;;;;;;;;5069713;28;20211;-60
2022/01/31 03:37:46;;;;;;;5.13;1.03;;;;;;;;;;5069781;28;20210;-60
2022/01/31 03:40:14;;;;;;;0.97;0.77;;;;;;;;;;5069563;28;20268;-60
2022/01/31 03:42:41;;;;;;;1.90;0.70;;;;;;;;;;5069758;28;20272;-60
2022/01/31 03:45:10;;;;;;;1.70;0.77;;;;;;;;;;5069681;28;20215;-60
2022/01/31 03:47:44;;;;;;;0.80;0.80;;;;;;;;;;5049965;28;20212;-61
2022/01/31 03:50:11;;;;;;;4.60;0.67;;;;;;;;;;5064979;28;20241;-60
2022/01/31 03:52:38;;;;;;;0.63;0.63;;;;;;;;;;5052190;28;20630;-60
2022/01/31 03:55:06;;;;;;;2.13;0.80;;;;;;;;;;5068810;28;20299;-60
2022/01/31 03:57:33;;;;;;;1.37;0.60;;;;;;;;;;5069453;28;20271;-60
2022/01/31 04:00:01;;;;;;;3.60;0.73;;;;;;;;;;5069514;28;20261;-60
2022/01/31 04:02:28;;;;;;;1.17;0.77;;;;;;;;;;5069377;28;20209;-60
2022/01/31 04:04:56;;;;;;;0.90;0.90;;;;;;;;;;5069229;28;20666;-60
2022/01/31 04:07:23;;;;;;;3.13;0.67;;;;;;;;;;5069010;28;20301;-60
2022/01/31 04:09:53;;;;;;;0.97;0.80;;;;;;;;;;5068536;28;20243;-60
2022/01/31 04:12:20;;;;;;;2.13;0.67;;;;;;;;;;5069391;28;20211;-60
2022/01/31 04:14:47;;;;;;;5.13;0.73;;;;;;;;;;5069414;28;20207;-60
2022/01/31 04:17:14;;;;;;;3.10;1.37;;;;;;;;;;5068613;28;20625;-60
2022/01/31 04:19:41;;;;;;;4.73;1.13;;;;;;;;;;5068417;28;20262;-60
2022/01/31 04:22:14;;;;;;;1.50;0.60;;;;;;;;;;5069070;28;20207;-61
2022/01/31 04:24:42;;;;;;;0.50;0.50;;;;;;;;;;5069188;28;20228;-60
2022/01/31 04:27:15;;;;;;;4.77;1.13;;;;;;;;;;5068024;28;20587;-60
2022/01/31 04:29:44;;;;;;;2.70;1.00;;;;;;;;;;5068988;28;20708;-60
2022/01/31 04:32:11;;;;;;;4.20;0.77;;;;;;;;;;5069070;28;20214;-60
2022/01/31 04:34:38;;;;;;;3.77;0.87;;;;;;;;;;5068413;28;20207;-60
2022/01/31 04:37:05;;;;;;;1.30;0.77;;;;;;;;;;5069024;28;20207;-60
2022/01/31 04:39:33;;;;;;;0.73;0.50;;;;;;;;;;5068773;28;20217;-60
2022/01/31 04:42:00;;;;;;;2.17;1.00;;;;;;;;;;5068465;28;20337;-60
2022/01/31 04:44:27;;;;;;;3.20;0.83;;;;;;;;;;5069183;28;20213;-60
2022/01/31 04:46:55;;;;;;;2.00;0.90;;;;;;;;;;5068579;28;20212;-60
2022/01/31 04:49:23;;;;;;;4.03;0.80;;;;;;;;;;5068768;28;20556;-59
2022/01/31 04:51:51;;;;;;;0.50;0.50;;;;;;;;;;5068654;28;20250;-60
2022/01/31 04:54:18;;;;;;;3.27;1.03;;;;;;;;;;5070372;28;20672;-60
2022/01/31 04:56:47;;;;;;;0.77;0.77;;;;;;;;;;5072489;28;21010;-60
2022/01/31 04:59:14;;;;;;;3.47;0.90;;;;;;;;;;5072813;28;20287;-60
2022/01/31 05:01:43;;;;;;;7.60;1.27;;;;;;;;;;5072299;28;20214;-60
2022/01/31 05:04:10;;;;;;;0.97;0.97;;;;;;;;;;5072540;28;20207;-59
2022/01/31 05:06:39;;;;;;;2.80;0.73;;;;;;;;;;5072765;28;20210;-60
2022/01/31 05:09:07;;;;;;;9.73;1.20;;;;;;;;;;5052672;28;20229;-60
2022/01/31 05:11:34;;;;;;;1.87;0.97;;;;;;;;;;5052206;28;20311;-60
2022/01/31 05:14:02;;;;;;;1.90;0.97;;;;;;;;;;5052539;28;20653;-60
2022/01/31 05:16:30;;;;;;;1.00;0.80;;;;;;;;;;5052053;28;20363;-60
2022/01/31 05:18:57;;;;;;;2.47;1.30;;;;;;;;;;5052454;28;20209;-59
2022/01/31 05:21:24;;;;;;;3.70;1.13;;;;;;;;;;5051665;28;20204;-59
2022/01/31 05:23:51;;;;;;;2.37;0.90;;;;;;;;;;5052839;28;20212;-59
2022/01/31 05:26:18;;;;;;;0.53;0.53;;;;;;;;;;5052456;28;20627;-60
2022/01/31 05:28:45;;;;;;;5.40;1.10;;;;;;;;;;5052742;28;20211;-60
2022/01/31 05:31:13;;;;;;;4.37;0.83;;;;;;;;;;5052375;28;20219;-59
2022/01/31 05:33:40;;;;;;;7.50;1.20;;;;;;;;;;5052525;28;20208;-59
2022/01/31 05:36:08;;;;;;;3.60;0.83;;;;;;;;;;5052248;28;20204;-60
2022/01/31 05:38:38;;;;;;;3.60;1.93;;;;;;;;;;5051579;28;20321;-60
2022/01/31 05:41:07;;;;;;;1.87;0.93;;;;;;;;;;5052024;28;20261;-60
2022/01/31 05:43:35;;;;;;;5.87;1.03;;;;;;;;;;5050506;28;20208;-59
2022/01/31 05:46:02;;;;;;;3.23;1.33;;;;;;;;;;5044476;28;20217;-60
2022/01/31 05:48:30;;;;;;;7.33;1.20;;;;;;;;;;5038546;28;20223;-59
2022/01/31 05:50:57;;;;;;;2.13;1.00;;;;;;;;;;5043337;28;20235;-59
2022/01/31 05:53:24;;;;;;;2.23;1.30;;;;;;;;;;5052142;28;20212;-59
2022/01/31 05:55:51;;;;;;;1.50;0.93;;;;;;;;;;5052011;28;20275;-60
2022/01/31 05:58:18;;;;;;;0.70;0.70;;;;;;;;;;5051978;28;20218;-60
2022/01/31 06:00:45;;;;;;;1.97;0.93;;;;;;;;;;5048779;28;20199;-60
2022/01/31 06:03:14;;;;;;;2.93;0.60;;;;;;;;;;5040843;28;20205;-60
2022/01/31 06:05:42;;;;;;;2.93;0.87;;;;;;;;;;5049961;28;20215;-59
2022/01/31 06:08:09;;;;;;;1.40;1.10;;;;;;;;;;5062474;28;20245;-60
2022/01/31 06:10:42;;;;;;;1.40;1.17;;;;;;;;;;5070306;28;20250;-60
2022/01/31 06:13:09;;;;;;;4.23;0.73;;;;;;;;;;5070837;28;20264;-60
2022/01/31 06:15:36;;;;;;;0.97;0.90;;;;;;;;;;5059832;28;20207;-60
2022/01/31 06:18:03;;;;;;;2.73;0.80;;;;;;;;;;5071368;28;20215;-60
2022/01/31 06:20:30;;;;;;;0.80;0.80;;;;;;;;;;5071094;28;20203;-59
2022/01/31 06:22:59;;;;;;;2.87;0.70;;;;;;;;;;5071426;28;20211;-60
2022/01/31 06:25:26;;;;;;;0.53;0.53;;;;;;;;;;5071194;28;20204;-59
2022/01/31 06:27:53;;;;;;;0.70;0.70;;;;;;;;;;5069333;28;20203;-59
2022/01/31 06:30:20;;;;;;;2.33;0.80;;;;;;;;;;5070862;28;20719;-60
2022/01/31 06:32:47;;;;;;;3.10;0.63;;;;;;;;;;5062933;28;20257;-60
2022/01/31 06:35:14;;;;;;;2.73;0.43;;;;;;;;;;5064186;28;20234;-59
2022/01/31 06:37:42;;;;;;;2.37;0.70;;;;;;;;;;5064626;28;20234;-60
2022/01/31 06:40:10;;;;;;;0.50;0.50;;;;;;;;;;5059036;28;20210;-60
2022/01/31 06:42:37;;;;;;;0.93;0.70;;;;;;;;;;5060726;28;20585;-59
2022/01/31 06:45:05;;;;;;;1.50;0.53;;;;;;;;;;5062134;28;20281;-60
2022/01/31 06:47:32;;;;;;;0.57;0.30;;;;;;;;;;5070126;28;20217;-59
2022/01/31 06:49:59;;;;;;;0.33;0.33;;;;;;;;;;5053800;28;20238;-60
2022/01/31 06:52:27;;;;;;;0.83;0.50;;;;;;;;;;5066363;28;20249;-61
2022/01/31 06:54:55;;;;;;;1.80;0.30;;;;;;;;;;5070075;28;20560;-59
2022/01/31 06:57:25;;;;;;;0.63;0.30;;;;;;;;;;5069845;28;20214;-65
2022/01/31 06:59:52;;;;;;;0.30;0.30;;;;;;;;;;5069113;28;20666;-60
2022/01/31 07:02:19;;;;;;;0.27;0.27;;;;;;;;;;5049913;28;20203;-60
2022/01/31 07:04:46;;;;;;;0.50;0.30;;;;;;;;;;5049790;28;20215;-60
2022/01/31 07:07:13;;;;;;;0.40;0.40;;;;;;;;;;5048041;28;20784;-60
2022/01/31 07:09:42;;;;;;;0.30;0.30;;;;;;;;;;5049520;28;20208;-59
2022/01/31 07:12:12;;;;;;;0.60;0.60;;;;;;;;;;5049634;28;20231;-60
2022/01/31 07:14:40;;;;;;;0.73;0.60;;;;;;;;;;5050124;28;20214;-60
2022/01/31 07:17:07;;;;;;;0.30;0.30;;;;;;;;;;5049772;28;20207;-62
2022/01/31 07:19:37;;;;;;;0.67;0.40;;;;;;;;;;5049988;28;20219;-61
2022/01/31 07:22:09;;;;;;;2.33;0.80;;;;;;;;;;5061291;28;20207;-60
2022/01/31 07:24:46;;;;;;;0.30;0.30;;;;;;;;;;5050954;28;20221;-59
2022/01/31 07:27:13;;;;;;;0.20;0.20;;;;;;;;;;5049585;28;20211;-60
2022/01/31 07:29:43;;;;;;;0.27;0.27;;;;;;;;;;5048810;28;20215;-59
2022/01/31 07:32:11;;;;;;;0.97;0.40;;;;;;;;;;5049804;28;20326;-60
2022/01/31 07:34:39;;;;;;;0.30;0.30;;;;;;;;;;5049388;28;20304;-60
2022/01/31 07:37:06;;;;;;;0.33;0.33;;;;;;;;;;5055397;28;20215;-60
2022/01/31 07:39:33;;;;;;;0.30;0.30;;;;;;;;;;5069592;28;20206;-63
2022/01/31 07:42:00;;;;;;;0.40;0.40;;;;;;;;;;5069443;28;20203;-60
2022/01/31 07:44:27;;;;;;;4.60;0.40;;;;;;;;;;5069455;28;20217;-60
2022/01/31 07:46:55;;;;;;;0.40;0.23;;;;;;;;;;5069474;28;20215;-60
2022/01/31 07:49:23;;;;;;;0.20;0.20;;;;;;;;;;5069212;28;20207;-60
2022/01/31 07:51:50;;;;;;;0.10;0.10;;;;;;;;;;5069112;28;20686;-61
2022/01/31 07:54:17;;;;;;;0.30;0.30;;;;;;;;;;5069021;28;20207;-60
2022/01/31 07:56:44;;;;;;;0.30;0.30;;;;;;;;;;5069227;28;20209;-60
2022/01/31 07:59:11;;;;;;;0.30;0.30;;;;;;;;;;5069292;28;20215;-60
2022/01/31 08:01:38;;;;;;;4.73;0.60;;;;;;;;;;5069017;28;20549;-60
2022/01/31 08:04:07;;;;;;;0.23;0.23;;;;;;;;;;5068562;28;20207;-60
2022/01/31 08:06:34;;;;;;;0.50;0.50;;;;;;;;;;5068840;28;20646;-60
2022/01/31 08:09:01;;;;;;;0.70;0.50;;;;;;;;;;5068506;28;20307;-60
2022/01/31 08:11:32;;;;;;;1.60;0.30;;;;;;;;;;5068617;28;20226;-60
2022/01/31 08:14:02;;;;;;;0.20;0.20;;;;;;;;;;5068523;28;20231;-60
2022/01/31 08:16:29;;;;;;;0.97;0.30;;;;;;;;;;5068580;28;20210;-60
2022/01/31 08:18:56;;;;;;;0.77;0.40;;;;;;;;;;5068560;28;20268;-60
2022/01/31 08:21:25;;;;;;;1.20;0.40;;;;;;;;;;5068420;28;20217;-60
2022/01/31 08:23:52;;;;;;;0.43;0.43;;;;;;;;;;5068586;28;20213;-60
2022/01/31 08:26:19;;;;;;;0.30;0.30;;;;;;;;;;5068591;28;20275;-60
2022/01/31 08:28:53;;;;;;;0.30;0.30;;;;;;;;;;5067594;28;20753;-60
2022/01/31 08:31:24;;;;;;;0.30;0.30;;;;;;;;;;5068427;28;20230;-60
2022/01/31 08:34:04;;;;;;;0.30;0.30;;;;;;;;;;5068148;28;20210;-60
2022/01/31 08:36:34;;;;;;;0.20;0.20;;;;;;;;;;5068455;28;20691;-61
2022/01/31 08:39:02;;;;;;;0.77;0.40;;;;;;;;;;5068415;28;20222;-60
2022/01/31 08:41:29;;;;;;;0.20;0.20;;;;;;;;;;5068456;28;20306;-60
2022/01/31 08:43:56;;;;;;;0.40;0.40;;;;;;;;;;5067899;28;20218;-60
2022/01/31 08:46:23;;;;;;;0.17;0.17;;;;;;;;;;5068266;28;20271;-61
2022/01/31 08:48:50;;;;;;;0.23;0.13;;;;;;;;;;5068068;28;20719;-59
2022/01/31 08:51:17;;;;;;;0.43;0.40;;;;;;;;;;5067831;28;20282;-60
2022/01/31 08:53:48;;;;;;;0.30;0.30;;;;;;;;;;5061956;28;20630;-61
2022/01/31 08:56:15;;;;;;;0.20;0.20;;;;;;;;;;5058456;28;20609;-60
2022/01/31 08:58:46;;;;;;;1.23;0.43;;;;;;;;;;5057450;28;20223;-60
2022/01/31 09:01:17;;;;;;;0.40;0.23;;;;;;;;;;5065648;28;20715;-60
2022/01/31 09:04:00;;;;;;;0.30;0.30;;;;;;;;;;5067940;28;20207;-60
2022/01/31 09:06:28;;;;;;;3.63;0.40;;;;;;;;;;5057791;28;20226;-60
2022/01/31 09:08:57;;;;;;;1.67;0.47;;;;;;;;;;5059263;28;20230;-60
2022/01/31 09:11:24;;;;;;;0.30;0.30;;;;;;;;;;5058896;28;20223;-60
2022/01/31 09:13:52;;;;;;;3.10;0.90;;;;;;;;;;5048952;28;20352;-61
2022/01/31 09:16:19;;;;;;;0.87;0.60;;;;;;;;;;5042631;28;20435;-60
2022/01/31 09:18:46;;;;;;;0.30;0.30;;;;;;;;;;5042468;28;20215;-60
2022/01/31 09:21:13;;;;;;;0.90;0.47;;;;;;;;;;5059923;28;20276;-61
2022/01/31 09:23:41;;;;;;;0.50;0.50;;;;;;;;;;5062347;28;20218;-60
2022/01/31 09:26:09;;;;;;;0.50;0.50;;;;;;;;;;5062419;28;20217;-60
2022/01/31 09:28:36;;;;;;;0.90;0.50;;;;;;;;;;5062297;28;20851;-59
2022/01/31 09:31:04;;;;;;;0.63;0.63;;;;;;;;;;5062000;28;20216;-59
2022/01/31 09:33:31;;;;;;;0.33;0.33;;;;;;;;;;5062076;28;20218;-59
2022/01/31 09:35:59;;;;;;;1.07;0.63;;;;;;;;;;5062436;28;20642;-60
2022/01/31 09:38:26;;;;;;;1.33;0.40;;;;;;;;;;5062185;28;20673;-61
2022/01/31 09:40:53;;;;;;;0.40;0.40;;;;;;;;;;5064641;28;20685;-60
2022/01/31 09:43:52;;;;;;;1.33;0.20;;;;;;;;;;5065813;28;20224;-61
2022/01/31 09:46:43;;;;;;;0.40;0.40;;;;;;;;;;5065539;28;20206;-60
2022/01/31 09:49:07;;;;;;;0.67;0.47;;;;;;;;;;5065285;28;20213;-60
2022/01/31 09:51:34;;;;;;;0.40;0.30;;;;;;;;;;5065386;28;20243;-60
2022/01/31 09:54:03;;;;;;;1.50;0.70;;;;;;;;;;5065626;28;20696;-60
2022/01/31 09:56:33;;;;;;;0.23;0.23;;;;;;;;;;5065684;28;20207;-60
2022/01/31 09:59:02;;;;;;;1.03;0.20;;;;;;;;;;5054556;28;20239;-60
2022/01/31 10:01:30;;;;;;;0.20;0.20;;;;;;;;;;5045763;28;20295;-60
2022/01/31 10:03:58;;;;;;;0.10;0.10;;;;;;;;;;5044999;28;20269;-60
2022/01/31 10:06:26;;;;;;;0.20;0.20;;;;;;;;;;5061700;28;20211;-60
2022/01/31 10:09:04;;;;;;;0.10;0.10;;;;;;;;;;5064892;28;20584;-60
2022/01/31 10:11:39;;;;;;;2.50;0.30;;;;;;;;;;5065681;28;20724;-60
2022/01/31 10:16:59;;;;;;;1.70;0.50;;;;;;;;;;5066018;28;20698;-60
2022/01/31 10:19:27;;;;;;;0.37;0.37;;;;;;;;;;5065415;28;20211;-60
2022/01/31 10:21:55;;;;;;;0.20;0.20;;;;;;;;;;5064788;28;20210;-60
2022/01/31 10:24:23;;;;;;;3.90;0.77;;;;;;;;;;5064644;28;20268;-60
2022/01/31 10:26:50;;;;;;;3.83;0.40;;;;;;;;;;5064074;28;20591;-60
2022/01/31 10:29:19;;;;;;;0.20;0.20;;;;;;;;;;5064273;28;20256;-61
2022/01/31 10:32:01;;;;;;;0.00;0.00;;;;;;;;;;5064150;28;20284;-60
2022/01/31 10:34:38;;;;;;;0.50;0.10;;;;;;;;;;5062847;28;20217;-62
2022/01/31 10:37:10;;;;;;;1.07;0.23;;;;;;;;;;5063839;28;20421;-62
2022/01/31 10:51:14;;;;;;;0.00;0.00;;;;;;;;;;5046801;28;20659;-62
2022/01/31 10:53:43;;;;;;;0.87;0.30;;;;;;;;;;5063888;28;20211;-61
2022/01/31 10:56:11;;;;;;;1.07;0.07;;;;;;;;;;5063810;28;20290;-61
2022/01/31 10:58:53;;;;;;;0.00;0.00;;;;;;;;;;5063535;28;20207;-61
2022/01/31 11:01:22;;;;;;;0.53;0.20;;;;;;;;;;5063436;28;20211;-61
2022/01/31 11:03:49;;;;;;;0.17;0.17;;;;;;;;;;5063142;28;20203;-61
2022/01/31 11:06:16;;;;;;;0.20;0.10;;;;;;;;;;5061632;28;20211;-59
2022/01/31 11:08:43;;;;;;;0.10;0.10;;;;;;;;;;5061386;28;20243;-65
2022/01/31 11:11:10;;;;;;;0.10;0.10;;;;;;;;;;5063291;28;20214;-62
2022/01/31 11:13:38;;;;;;;0.77;0.20;;;;;;;;;;5063717;28;20686;-62
2022/01/31 11:16:06;;;;;;;0.00;0.00;;;;;;;;;;5065902;28;20218;-64
2022/01/31 11:18:35;;;;;;;0.17;0.17;;;;;;;;;;5064869;28;20214;-65
2022/01/31 11:21:06;;;;;;;0.00;0.00;;;;;;;;;;5064087;28;20235;-62
2022/01/31 11:23:37;;;;;;;0.03;0.00;;;;;;;;;;5060802;28;20224;-61
2022/01/31 11:26:06;;;;;;;0.37;0.10;;;;;;;;;;5045913;28;20215;-59
2022/01/31 11:28:34;;;;;;;0.00;0.00;;;;;;;;;;5043589;28;20477;-59
2022/01/31 11:31:02;;;;;;;0.30;0.30;;;;;;;;;;5055824;28;20212;-62
2022/01/31 11:33:30;;;;;;;0.10;0.10;;;;;;;;;;5045766;28;20227;-59
2022/01/31 11:35:58;;;;;;;0.47;0.20;;;;;;;;;;5062843;28;20257;-59
2022/01/31 11:38:25;;;;;;;3.20;0.10;;;;;;;;;;5062462;28;20254;-61
2022/01/31 11:40:53;;;;;;;0.13;0.13;;;;;;;;;;5063388;28;20267;-60
2022/01/31 11:43:22;;;;;;;0.10;0.10;;;;;;;;;;5063531;28;20230;-60
2022/01/31 11:45:52;;;;;;;0.30;0.30;;;;;;;;;;5063551;28;20211;-60
2022/01/31 11:48:20;;;;;;;0.20;0.20;;;;;;;;;;5063774;28;20603;-62
2022/01/31 11:50:49;;;;;;;0.10;0.10;;;;;;;;;;5050439;28;20239;-60
2022/01/31 11:53:27;;;;;;;1.90;0.40;;;;;;;;;;5063533;28;20234;-60
2022/01/31 11:55:54;;;;;;;0.20;0.20;;;;;;;;;;5063366;28;20215;-60
2022/01/31 11:58:21;;;;;;;0.53;0.40;;;;;;;;;;5062860;28;20215;-61
2022/01/31 12:00:48;;;;;;;0.30;0.30;;;;;;;;;;5056784;28;20254;-61
2022/01/31 12:03:16;;;;;;;0.50;0.50;;;;;;;;;;5042051;28;20300;-59
2022/01/31 12:05:44;;;;;;;0.53;0.30;;;;;;;;;;5042825;28;20223;-61
2022/01/31 12:08:15;;;;;;;0.40;0.40;;;;;;;;;;5060068;28;20265;-62
2022/01/31 12:10:46;;;;;;;0.20;0.20;;;;;;;;;;5056724;28;20207;-62
2022/01/31 12:13:29;;;;;;;0.20;0.20;;;;;;;;;;5063525;28;20231;-62
2022/01/31 12:16:07;;;;;;;0.30;0.30;;;;;;;;;;5064061;28;20317;-69
2022/01/31 12:24:43;;;;;;;0.20;0.20;;;;;;;;;;5061290;28;20268;-66
2022/01/31 12:27:13;;;;;;;0.30;0.30;;;;;;;;;;5063656;28;20209;-60
2022/01/31 12:29:42;;;;;;;0.10;0.10;;;;;;;;;;5063776;28;20210;-63
2022/01/31 12:32:15;;;;;;;0.10;0.10;;;;;;;;;;5060760;28;20231;-62
2022/01/31 12:34:44;;;;;;;0.00;0.00;;;;;;;;;;5050087;28;20223;-61
2022/01/31 12:37:25;;;;;;;0.30;0.30;;;;;;;;;;5047589;28;20222;-62
2022/01/31 12:40:08;;;;;;;0.40;0.13;;;;;;;;;;5063935;28;20211;-61
2022/01/31 12:43:09;;;;;;;0.20;0.20;;;;;;;;;;5059391;28;20903;-61
2022/01/31 12:45:51;;;;;;;0.20;0.20;;;;;;;;;;5061352;28;20581;-61
2022/01/31 12:48:19;;;;;;;0.20;0.20;;;;;;;;;;5040571;28;20207;-61
2022/01/31 12:51:00;;;;;;;0.60;0.20;;;;;;;;;;5059529;28;20285;-61
2022/01/31 12:53:47;;;;;;;0.10;0.10;;;;;;;;;;5062149;28;20621;-62
2022/01/31 12:56:21;;;;;;;0.00;0.00;;;;;;;;;;5054225;28;20206;-61
2022/01/31 12:58:51;;;;;;;0.10;0.10;;;;;;;;;;5063381;28;20210;-62
2022/01/31 13:01:18;;;;;;;0.00;0.00;;;;;;;;;;5063790;28;20212;-61
2022/01/31 13:03:46;;;;;;;0.10;0.10;;;;;;;;;;5062676;28;20241;-61
2022/01/31 13:06:26;;;;;;;0.00;0.00;;;;;;;;;;5057903;28;20204;-61
2022/01/31 13:08:54;;;;;;;0.10;0.10;;;;;;;;;;5059918;28;20719;-61
2022/01/31 13:11:21;;;;;;;0.57;0.13;;;;;;;;;;5063497;28;20207;-62
2022/01/31 13:13:49;;;;;;;0.10;0.10;;;;;;;;;;5061338;28;20761;-61
2022/01/31 13:16:16;;;;;;;0.10;0.10;;;;;;;;;;5048070;28;20660;-61
2022/01/31 13:18:44;;;;;;;0.23;0.23;;;;;;;;;;5052668;28;20640;-61
2022/01/31 13:21:13;;;;;;;0.10;0.10;;;;;;;;;;5066996;28;20218;-61
2022/01/31 13:23:42;;;;;;;3.73;0.27;;;;;;;;;;5067121;28;20211;-61
2022/01/31 13:26:10;;;;;;;0.13;0.13;;;;;;;;;;5067020;28;20923;-61
2022/01/31 13:28:37;;;;;;;0.30;0.30;;;;;;;;;;5066363;28;20215;-61
2022/01/31 13:31:06;;;;;;;0.10;0.10;;;;;;;;;;5067126;28;20257;-61
2022/01/31 13:33:33;;;;;;;0.10;0.10;;;;;;;;;;5047603;28;20250;-61
2022/01/31 13:36:01;;;;;;;0.83;0.20;;;;;;;;;;5051829;28;20219;-61
2022/01/31 13:38:28;;;;;;;0.00;0.00;;;;;;;;;;5055091;28;20203;-62
2022/01/31 13:40:57;;;;;;;0.23;0.10;;;;;;;;;;5055144;28;20256;-61
2022/01/31 13:43:28;;;;;;;0.10;0.10;;;;;;;;;;5055956;28;20731;-62
2022/01/31 13:46:00;;;;;;;0.10;0.10;;;;;;;;;;5057265;28;20322;-62
2022/01/31 13:48:44;;;;;;;0.00;0.00;;;;;;;;;;5051092;28;20233;-62
2022/01/31 13:51:14;;;;;;;0.00;0.00;;;;;;;;;;5065765;28;20604;-61
2022/01/31 13:53:42;;;;;;;0.00;0.00;;;;;;;;;;5065473;28;20255;-62
2022/01/31 13:56:09;;;;;;;0.00;0.00;;;;;;;;;;5066001;28;20277;-61
2022/01/31 13:58:37;;;;;;;0.00;0.00;;;;;;;;;;5065402;28;20610;-61
2022/01/31 14:01:05;;;;;;;0.00;0.00;;;;;;;;;;5059007;28;20214;-62
2022/01/31 14:03:40;;;;;;;0.00;0.00;;;;;;;;;;5065607;28;20704;-63
2022/01/31 14:06:11;;;;;;;0.10;0.10;;;;;;;;;;5065691;28;20630;-61
2022/01/31 14:08:42;;;;;;;0.10;0.10;;;;;;;;;;5065155;28;20288;-61
2022/01/31 14:11:11;;;;;;;0.00;0.00;;;;;;;;;;5055168;28;20261;-61
2022/01/31 14:13:40;;;;;;;0.10;0.10;;;;;;;;;;5059322;28;20531;-61
2022/01/31 14:16:07;;;;;;;0.17;0.17;;;;;;;;;;5066356;28;20310;-60
2022/01/31 14:18:34;;;;;;;0.20;0.20;;;;;;;;;;5065842;28;20758;-60
2022/01/31 14:21:05;;;;;;;0.10;0.10;;;;;;;;;;5062496;28;20245;-60
2022/01/31 14:23:37;;;;;;;0.10;0.10;;;;;;;;;;5064894;28;20456;-60
2022/01/31 14:26:05;;;;;;;1.50;0.20;;;;;;;;;;5065290;28;20214;-62
2022/01/31 14:28:37;;;;;;;0.10;0.10;;;;;;;;;;5059537;28;20212;-62
2022/01/31 14:31:04;;;;;;;0.10;0.10;;;;;;;;;;5064972;28;20222;-62
2022/01/31 14:33:31;;;;;;;0.10;0.10;;;;;;;;;;5064038;28;20558;-62
2022/01/31 14:36:02;;;;;;;0.10;0.10;;;;;;;;;;5064086;28;20693;-62
2022/01/31 14:38:34;;;;;;;0.00;0.00;;;;;;;;;;5049185;28;20214;-62
2022/01/31 14:41:23;;;;;;;0.20;0.20;;;;;;;;;;5044223;28;20212;-62
2022/01/31 14:49:21;;;;;;;0.20;0.20;;;;;;;;;;5064338;28;20244;-61
2022/01/31 14:51:49;;;;;;;0.93;0.20;;;;;;;;;;5063684;28;20602;-60
2022/01/31 14:54:16;;;;;;;0.23;0.23;;;;;;;;;;5063057;28;20730;-61
2022/01/31 14:56:46;;;;;;;0.50;0.10;;;;;;;;;;5043868;28;20211;-62
2022/01/31 14:59:13;;;;;;;0.07;0.07;;;;;;;;;;5047256;28;20513;-62
2022/01/31 15:01:40;;;;;;;0.50;0.40;;;;;;;;;;5063355;28;20582;-61
2022/01/31 15:04:17;;;;;;;0.30;0.30;;;;;;;;;;5061794;28;20264;-61
2022/01/31 15:06:44;;;;;;;0.17;0.17;;;;;;;;;;5064664;28;20297;-60
2022/01/31 15:09:11;;;;;;;0.10;0.10;;;;;;;;;;5063866;28;20252;-62
2022/01/31 15:11:38;;;;;;;0.30;0.30;;;;;;;;;;5063120;28;20219;-61
2022/01/31 15:14:07;;;;;;;0.23;0.10;;;;;;;;;;5052282;28;20287;-61
2022/01/31 15:16:34;;;;;;;0.30;0.30;;;;;;;;;;5044582;28;20252;-61
2022/01/31 15:19:01;;;;;;;0.20;0.20;;;;;;;;;;5044282;28;20212;-61